createdAt,value
2018-11-02T00:01:57.021Z,4.03
2018-11-02T00:04:31.288Z,4.10
2018-11-02T00:07:04.789Z,3.93
2018-11-02T00:09:37.602Z,4.20
2018-11-02T00:12:11.487Z,4.00
2018-11-02T00:14:45.287Z,3.50
2018-11-02T00:17:18.856Z,3.80
2018-11-02T00:19:52.840Z,4.00
2018-11-02T00:22:25.632Z,3.70
2018-11-02T00:24:59.123Z,4.27
2018-11-02T00:27:32.770Z,3.72
2018-11-02T00:30:05.624Z,4.20
2018-11-02T00:32:38.415Z,3.97
2018-11-02T00:35:12.610Z,3.90
2018-11-02T00:37:46.038Z,3.70
2018-11-02T00:40:19.794Z,4.05
2018-11-02T00:42:53.484Z,3.43
2018-11-02T00:45:27.286Z,3.67
2018-11-02T00:48:00.802Z,3.45
2018-11-02T00:50:34.521Z,3.80
2018-11-02T00:53:08.584Z,3.87
2018-11-02T00:55:42.283Z,4.00
2018-11-02T00:58:15.731Z,3.70
2018-11-02T01:00:49.353Z,3.70
2018-11-02T01:03:22.968Z,3.67
2018-11-02T01:05:56.609Z,3.60
2018-11-02T01:08:30.289Z,3.37
2018-11-02T01:11:03.769Z,3.87
2018-11-02T01:13:37.250Z,3.30
2018-11-02T01:16:10.407Z,4.03
2018-11-02T01:18:44.384Z,3.67
2018-11-02T01:21:17.977Z,3.87
2018-11-02T01:23:51.633Z,3.90
2018-11-02T01:26:25.708Z,4.10
2018-11-02T01:28:59.659Z,3.73
2018-11-02T01:31:33.327Z,3.80
2018-11-02T01:34:07.566Z,3.50
2018-11-02T01:36:41.357Z,3.83
2018-11-02T01:39:15.017Z,3.70
2018-11-02T01:41:48.589Z,3.80
2018-11-02T01:44:22.459Z,3.37
2018-11-02T01:46:55.788Z,3.47
2018-11-02T01:49:30.057Z,3.50
2018-11-02T01:52:03.553Z,3.62
2018-11-02T01:54:37.056Z,3.47
2018-11-02T01:57:11.287Z,3.80
2018-11-02T01:59:44.770Z,3.47
2018-11-02T02:02:18.476Z,3.30
2018-11-02T02:04:52.272Z,3.57
2018-11-02T02:07:25.786Z,3.17
2018-11-02T02:09:59.541Z,3.50
2018-11-02T02:12:33.502Z,3.60
2018-11-02T02:15:08.279Z,3.60
2018-11-02T02:17:42.052Z,3.27
2018-11-02T02:20:15.871Z,3.27
2018-11-02T02:22:49.598Z,3.40
2018-11-02T02:25:23.325Z,3.80
2018-11-02T02:27:58.372Z,3.60
2018-11-02T02:30:32.377Z,3.63
2018-11-02T02:33:05.837Z,3.30
2018-11-02T02:35:39.610Z,3.40
2018-11-02T02:38:13.270Z,3.67
2018-11-02T02:40:47.374Z,3.50
2018-11-02T02:43:21.411Z,3.60
2018-11-02T02:45:55.057Z,3.17
2018-11-02T02:48:29.380Z,3.40
2018-11-02T02:51:02.859Z,3.33
2018-11-02T02:53:36.535Z,3.60
2018-11-02T02:56:10.580Z,3.57
2018-11-02T02:58:44.273Z,3.40
2018-11-02T03:01:17.808Z,3.52
2018-11-02T03:03:51.242Z,3.50
2018-11-02T03:06:24.085Z,3.13
2018-11-02T03:08:57.613Z,3.50
2018-11-02T03:11:31.283Z,3.70
2018-11-02T03:14:05.291Z,3.47
2018-11-02T03:16:38.790Z,3.50
2018-11-02T03:19:12.508Z,3.40
2018-11-02T03:21:46.524Z,3.30
2018-11-02T03:24:20.269Z,3.20
2018-11-02T03:26:54.368Z,3.33
2018-11-02T03:29:28.296Z,3.47
2018-11-02T03:32:01.819Z,3.25
2018-11-02T03:34:35.571Z,3.60
2018-11-02T03:37:09.319Z,3.03
2018-11-02T03:39:42.768Z,3.20
2018-11-02T03:42:16.557Z,3.20
2018-11-02T03:44:50.290Z,3.33
2018-11-02T03:47:23.793Z,3.23
2018-11-02T03:49:57.518Z,3.07
2018-11-02T03:52:32.278Z,3.10
2018-11-02T03:55:06.348Z,3.10
2018-11-02T03:57:40.434Z,3.30
2018-11-02T04:00:14.459Z,3.27
2018-11-02T04:02:47.798Z,3.33
2018-11-02T04:05:21.786Z,3.50
2018-11-02T04:07:55.607Z,3.40
2018-11-02T04:10:29.273Z,3.03
2018-11-02T04:13:02.802Z,3.33
2018-11-02T04:15:35.445Z,3.00
2018-11-02T04:18:08.567Z,3.10
2018-11-02T04:20:42.291Z,3.30
2018-11-02T04:23:15.805Z,3.35
2018-11-02T04:25:48.765Z,3.00
2018-11-02T04:28:21.420Z,3.27
2018-11-02T04:30:55.345Z,3.10
2018-11-02T04:33:28.797Z,2.98
2018-11-02T04:36:02.497Z,2.97
2018-11-02T04:38:36.291Z,3.43
2018-11-02T04:41:09.782Z,3.13
2018-11-02T04:43:43.601Z,3.27
2018-11-02T04:46:17.077Z,2.80
2018-11-02T04:48:50.585Z,3.10
2018-11-02T04:51:24.272Z,2.80
2018-11-02T04:53:57.789Z,3.00
2018-11-02T04:56:31.581Z,2.90
2018-11-02T04:59:05.380Z,2.90
2018-11-02T05:01:39.443Z,2.70
2018-11-02T05:04:13.052Z,2.90
2018-11-02T05:06:46.656Z,3.17
2018-11-02T05:09:20.267Z,3.30
2018-11-02T05:11:53.778Z,3.10
2018-11-02T05:14:27.545Z,2.87
2018-11-02T05:17:01.287Z,2.90
2018-11-02T05:19:35.495Z,2.98
2018-11-02T05:22:09.474Z,2.80
2018-11-02T05:24:42.800Z,2.87
2018-11-02T05:27:16.680Z,3.00
2018-11-02T05:29:50.289Z,2.80
2018-11-02T05:32:23.809Z,3.10
2018-11-02T05:34:58.273Z,2.97
2018-11-02T05:37:32.287Z,2.90
2018-11-02T05:40:05.811Z,2.80
2018-11-02T05:42:39.532Z,2.97
2018-11-02T05:45:13.278Z,2.60
2018-11-02T05:47:47.384Z,2.77
2018-11-02T05:50:21.065Z,2.60
2018-11-02T05:52:54.596Z,2.90
2018-11-02T05:55:28.292Z,2.80
2018-11-02T05:58:02.525Z,2.67
2018-11-02T06:00:36.459Z,2.60
2018-11-02T06:03:10.064Z,2.70
2018-11-02T06:05:43.605Z,2.85
2018-11-02T06:08:17.556Z,2.70
2018-11-02T06:10:51.291Z,2.57
2018-11-02T06:13:24.848Z,2.70
2018-11-02T06:15:57.456Z,2.70
2018-11-02T06:18:30.253Z,2.73
2018-11-02T06:21:03.822Z,2.60
2018-11-02T06:23:37.604Z,2.90
2018-11-02T06:26:11.368Z,2.60
2018-11-02T06:28:44.811Z,2.67
2018-11-02T06:31:18.444Z,2.73
2018-11-02T06:33:51.813Z,2.80
2018-11-02T06:36:25.514Z,2.80
2018-11-02T06:38:59.346Z,2.87
2018-11-02T06:41:32.723Z,2.90
2018-11-02T06:44:06.367Z,2.60
2018-11-02T06:46:40.400Z,2.67
2018-11-02T06:49:15.392Z,2.67
2018-11-02T06:51:48.782Z,2.40
2018-11-02T06:54:21.587Z,2.53
2018-11-02T06:56:54.385Z,2.70
2018-11-02T06:59:28.120Z,2.37
2018-11-02T07:02:02.396Z,2.50
2018-11-02T07:04:36.412Z,2.40
2018-11-02T07:07:10.314Z,2.50
2018-11-02T07:09:43.756Z,2.60
2018-11-02T07:12:17.539Z,2.50
2018-11-02T07:14:51.597Z,2.60
2018-11-02T07:17:25.304Z,2.83
2018-11-02T07:19:59.103Z,2.60
2018-11-02T07:22:33.292Z,2.40
2018-11-02T07:25:07.316Z,2.50
2018-11-02T07:27:40.824Z,2.52
2018-11-02T07:30:14.753Z,2.37
2018-11-02T07:32:48.480Z,2.57
2018-11-02T07:35:22.616Z,2.53
2018-11-02T07:37:56.745Z,2.57
2018-11-02T07:40:30.771Z,2.50
2018-11-02T07:43:04.565Z,2.40
2018-11-02T07:45:38.284Z,2.20
2018-11-02T07:48:11.819Z,2.60
2018-11-02T07:50:44.531Z,2.30
2018-11-02T07:53:18.070Z,2.60
2018-11-02T07:55:51.791Z,2.45
2018-11-02T07:58:25.502Z,2.70
2018-11-02T08:00:59.362Z,2.30
2018-11-02T08:03:33.447Z,2.50
2018-11-02T08:06:07.068Z,2.40
2018-11-02T08:08:41.069Z,2.47
2018-11-02T08:11:14.655Z,2.22
2018-11-02T08:13:48.311Z,2.20
2018-11-02T08:16:21.776Z,2.17
2018-11-02T08:18:55.601Z,2.13
2018-11-02T08:21:29.300Z,2.63
2018-11-02T08:24:02.909Z,2.50
2018-11-02T08:29:09.290Z,2.50
2018-11-02T08:31:42.829Z,2.17
2018-11-02T08:34:16.592Z,2.30
2018-11-02T08:36:54.054Z,2.30
2018-11-02T08:39:28.279Z,2.13
2018-11-02T08:42:01.754Z,2.47
2018-11-02T08:44:35.886Z,2.50
2018-11-02T08:47:09.553Z,2.50
2018-11-02T08:49:43.054Z,2.10
2018-11-02T08:52:16.839Z,2.10
2018-11-02T08:54:50.785Z,2.30
2018-11-02T08:57:24.459Z,2.27
2018-11-02T08:59:58.310Z,2.30
2018-11-02T09:02:31.879Z,2.20
2018-11-02T09:05:05.857Z,2.30
2018-11-02T09:07:40.294Z,2.30
2018-11-02T09:10:14.584Z,2.30
2018-11-02T09:12:48.297Z,2.20
2018-11-02T09:15:21.804Z,2.20
2018-11-02T09:17:56.332Z,2.13
2018-11-02T09:20:30.068Z,2.20
2018-11-02T09:23:03.629Z,2.30
2018-11-02T09:25:37.085Z,2.00
2018-11-02T09:28:10.661Z,2.58
2018-11-02T09:30:44.084Z,2.10
2018-11-02T09:33:17.575Z,2.35
2018-11-02T09:35:51.302Z,2.00
2018-11-02T09:38:25.497Z,2.40
2018-11-02T09:40:58.807Z,2.00
2018-11-02T09:43:32.567Z,2.10
2018-11-02T09:46:06.291Z,2.20
2018-11-02T09:48:39.756Z,2.00
2018-11-02T09:51:13.424Z,2.00
2018-11-02T09:53:46.789Z,2.30
2018-11-02T09:56:20.601Z,2.20
2018-11-02T09:58:54.286Z,2.30
2018-11-02T10:01:27.827Z,2.20
2018-11-02T10:04:01.568Z,2.27
2018-11-02T10:06:35.348Z,1.90
2018-11-02T10:09:12.978Z,2.37
2018-11-02T10:11:46.516Z,2.33
2018-11-02T10:14:20.292Z,2.13
2018-11-02T10:16:53.846Z,2.27
2018-11-02T10:19:28.681Z,2.10
2018-11-02T10:22:02.289Z,2.10
2018-11-02T10:24:36.299Z,2.22
2018-11-02T10:27:10.390Z,2.33
2018-11-02T10:29:44.340Z,2.60
2018-11-02T10:32:17.791Z,2.30
2018-11-02T10:34:51.599Z,2.10
2018-11-02T10:37:25.344Z,2.43
2018-11-02T10:39:58.801Z,2.40
2018-11-02T10:42:32.521Z,2.60
2018-11-02T10:45:06.619Z,2.17
2018-11-02T10:47:40.292Z,2.60
2018-11-02T10:50:13.821Z,2.23
2018-11-02T10:52:47.554Z,2.40
2018-11-02T10:55:21.279Z,2.00
2018-11-02T10:57:54.824Z,2.22
2018-11-02T11:00:45.938Z,2.20
2018-11-02T11:05:51.839Z,1.70
2018-11-02T11:08:25.600Z,2.20
2018-11-02T11:10:59.310Z,2.27
2018-11-02T11:13:33.058Z,2.10
2018-11-02T11:16:06.387Z,2.20
2018-11-02T11:18:40.596Z,2.30
2018-11-02T11:21:14.505Z,2.27
2018-11-02T11:23:47.979Z,2.10
2018-11-02T11:26:21.556Z,2.17
2018-11-02T11:28:55.600Z,2.43
2018-11-02T11:31:29.295Z,2.27
2018-11-02T11:34:02.757Z,2.12
2018-11-02T11:36:36.457Z,2.40
2018-11-02T11:39:15.300Z,2.20
2018-11-02T11:41:48.772Z,2.02
2018-11-02T11:44:22.519Z,2.03
2018-11-02T11:46:56.297Z,2.03
2018-11-02T11:49:29.742Z,2.33
2018-11-02T11:52:03.405Z,1.82
2018-11-02T11:54:38.154Z,2.20
2018-11-02T11:57:12.367Z,1.97
2018-11-02T11:59:46.295Z,1.93
2018-11-02T12:02:20.481Z,1.70
2018-11-02T12:04:54.423Z,2.00
2018-11-02T12:07:28.300Z,2.03
2018-11-02T12:10:01.885Z,1.80
2018-11-02T12:12:35.618Z,1.90
2018-11-02T12:15:11.286Z,2.10
2018-11-02T12:17:45.596Z,1.80
2018-11-02T12:20:22.397Z,1.80
2018-11-02T12:22:58.740Z,1.90
2018-11-02T12:25:32.287Z,2.20
2018-11-02T12:28:05.808Z,1.80
2018-11-02T12:30:38.625Z,1.70
2018-11-02T12:33:11.443Z,1.97
2018-11-02T12:35:45.064Z,2.10
2018-11-02T12:38:18.740Z,2.15
2018-11-02T12:40:52.385Z,1.72
2018-11-02T12:43:26.306Z,1.80
2018-11-02T12:45:59.783Z,1.93
2018-11-02T12:48:33.757Z,2.20
2018-11-02T12:51:07.305Z,1.80
2018-11-02T12:53:41.554Z,2.10
2018-11-02T12:56:15.282Z,2.07
2018-11-02T12:58:49.359Z,1.60
2018-11-02T13:01:22.884Z,2.00
2018-11-02T13:06:28.778Z,1.55
2018-11-02T13:09:02.993Z,1.80
2018-11-02T13:11:36.779Z,1.70
2018-11-02T13:14:10.553Z,1.87
2018-11-02T13:16:44.381Z,1.60
2018-11-02T13:19:17.795Z,1.72
2018-11-02T13:21:51.656Z,1.37
2018-11-02T13:24:25.286Z,1.70
2018-11-02T13:26:58.788Z,1.67
2018-11-02T13:29:32.546Z,1.70
2018-11-02T13:32:06.291Z,1.60
2018-11-02T13:34:39.700Z,1.80
2018-11-02T13:37:13.674Z,1.57
2018-11-02T13:39:47.314Z,1.70
2018-11-02T13:42:21.175Z,1.55
2018-11-02T13:44:55.282Z,1.70
2018-11-02T13:47:28.760Z,2.03
2018-11-02T13:50:02.362Z,1.80
2018-11-02T13:52:35.819Z,1.70
2018-11-02T13:55:10.950Z,1.80
2018-11-02T13:57:45.272Z,1.80
2018-11-02T14:00:19.827Z,1.90
2018-11-02T14:02:53.536Z,1.50
2018-11-02T14:05:27.062Z,1.70
2018-11-02T14:08:00.628Z,1.77
2018-11-02T14:10:35.358Z,1.77
2018-11-02T14:13:09.725Z,1.70
2018-11-02T14:15:43.548Z,1.73
2018-11-02T14:18:17.333Z,1.60
2018-11-02T14:20:50.756Z,1.57
2018-11-02T14:23:24.513Z,1.70
2018-11-02T14:25:58.087Z,1.60
2018-11-02T14:28:31.614Z,1.37
2018-11-02T14:31:05.049Z,1.53
2018-11-02T14:33:38.596Z,1.70
2018-11-02T14:36:12.337Z,1.50
2018-11-02T14:38:46.499Z,1.60
2018-11-02T14:41:20.487Z,1.77
2018-11-02T14:43:54.058Z,1.73
2018-11-02T14:46:27.608Z,1.62
2018-11-02T14:49:01.292Z,1.20
2018-11-02T14:51:35.004Z,1.60
2018-11-02T14:54:08.605Z,1.77
2018-11-02T14:56:42.286Z,1.40
2018-11-02T14:59:15.805Z,1.65
2018-11-02T15:01:49.520Z,1.40
2018-11-02T15:04:22.989Z,1.37
2018-11-02T15:06:57.664Z,1.60
2018-11-02T15:09:31.361Z,1.60
2018-11-02T15:12:05.292Z,1.60
2018-11-02T15:14:38.805Z,1.40
2018-11-02T15:17:13.054Z,1.67
2018-11-02T15:19:46.982Z,1.40
2018-11-02T15:22:20.570Z,1.33
2018-11-02T15:24:54.074Z,1.60
2018-11-02T15:27:27.641Z,1.40
2018-11-02T15:30:02.004Z,1.50
2018-11-02T15:32:36.056Z,1.30
2018-11-02T15:35:11.271Z,1.35
2018-11-02T15:37:46.279Z,1.50
2018-11-02T15:40:19.840Z,1.35
2018-11-02T15:42:52.625Z,1.50
2018-11-02T15:45:26.382Z,1.50
2018-11-02T15:48:00.060Z,1.60
2018-11-02T15:50:33.607Z,1.52
2018-11-02T15:53:07.328Z,1.60
2018-11-02T15:55:40.813Z,1.50
2018-11-02T15:58:13.606Z,1.43
2018-11-02T16:00:46.464Z,1.47
2018-11-02T16:03:20.057Z,1.40
2018-11-02T16:05:54.336Z,1.55
2018-11-02T16:08:27.791Z,1.50
2018-11-02T16:11:01.535Z,1.20
2018-11-02T16:13:35.344Z,1.40
2018-11-02T16:16:09.590Z,1.50
2018-11-02T16:18:43.348Z,1.30
2018-11-02T16:21:17.396Z,1.70
2018-11-02T16:23:51.281Z,1.27
2018-11-02T16:26:24.746Z,1.65
2018-11-02T16:28:58.948Z,1.50
2018-11-02T16:31:32.610Z,1.50
2018-11-02T16:34:06.366Z,1.40
2018-11-02T16:36:39.764Z,1.50
2018-11-02T16:39:17.283Z,1.53
2018-11-02T16:41:50.776Z,1.47
2018-11-02T16:44:23.708Z,1.47
2018-11-02T16:46:57.513Z,1.80
2018-11-02T16:49:31.626Z,1.50
2018-11-02T16:52:05.483Z,1.50
2018-11-02T16:54:38.906Z,1.47
2018-11-02T16:57:12.539Z,1.53
2018-11-02T16:59:46.273Z,1.83
2018-11-02T17:02:20.008Z,2.20
2018-11-02T17:04:53.653Z,2.10
2018-11-02T17:07:27.485Z,2.00
2018-11-02T17:10:01.519Z,1.87
2018-11-02T17:12:35.275Z,4.03
2018-11-02T17:15:09.563Z,3.67
2018-11-02T17:17:43.281Z,3.40
2018-11-02T17:20:18.332Z,3.12
2018-11-02T17:22:52.280Z,3.27
2018-11-02T17:25:25.745Z,2.70
2018-11-02T17:27:59.572Z,3.00
2018-11-02T17:30:33.663Z,2.87
2018-11-02T19:51:47.332Z,3.93
2018-11-02T19:54:21.298Z,3.73
2018-11-02T19:56:56.623Z,4.30
2018-11-02T20:02:09.008Z,4.20
2018-11-02T20:04:44.814Z,3.92
2018-11-02T20:07:22.077Z,4.12
2018-11-02T20:09:59.041Z,3.65
2018-11-02T20:12:36.005Z,3.55
2018-11-02T20:15:14.997Z,4.30
2018-11-02T20:17:52.069Z,4.08
2018-11-02T20:20:27.999Z,3.65
2018-11-02T20:23:05.067Z,4.25
2018-11-02T20:25:42.163Z,3.62
2018-11-02T20:28:20.679Z,3.80
2018-11-02T20:33:33.059Z,4.20
2018-11-02T20:36:10.991Z,3.10
2018-11-02T20:38:49.737Z,3.27
2018-11-02T20:41:27.046Z,3.20
2018-11-02T20:44:04.038Z,3.67
2018-11-02T20:46:40.577Z,2.87
2018-11-02T20:49:17.996Z,3.23
2018-11-02T20:51:55.063Z,3.07
2018-11-02T20:54:32.074Z,2.83
2018-11-02T20:57:09.667Z,3.50
2018-11-02T21:02:22.060Z,3.62
2018-11-02T21:04:59.072Z,3.22
2018-11-02T21:07:36.064Z,3.53
2018-11-02T21:10:15.140Z,3.50
2018-11-02T21:12:53.063Z,3.20
2018-11-02T21:15:30.056Z,3.27
2018-11-02T21:18:07.053Z,3.50
2018-11-02T21:20:44.808Z,3.23
2018-11-02T21:23:22.519Z,3.50
2018-11-02T21:26:00.075Z,3.60
2018-11-02T21:28:37.085Z,3.65
2018-11-02T21:31:16.672Z,3.60
2018-11-02T21:36:29.073Z,3.50
2018-11-02T21:39:07.047Z,3.57
2018-11-02T21:41:44.657Z,3.80
2018-11-02T21:44:21.975Z,3.10
2018-11-02T21:46:57.888Z,3.30
2018-11-02T21:49:33.916Z,3.22
2018-11-02T21:52:11.085Z,3.62
2018-11-02T21:54:48.066Z,3.37
2018-11-02T21:57:26.667Z,3.60
2018-11-02T22:02:39.063Z,3.37
2018-11-02T22:05:16.997Z,3.77
2018-11-02T22:07:55.041Z,3.50
2018-11-02T22:10:31.982Z,3.53
2018-11-02T22:13:08.986Z,3.47
2018-11-02T22:15:46.040Z,3.47
2018-11-02T22:18:23.012Z,3.20
2018-11-02T22:21:00.691Z,3.70
2018-11-02T22:24:33.596Z,3.50
2018-11-02T22:27:07.607Z,3.50
2018-11-02T22:29:41.301Z,3.75
2018-11-02T22:32:14.729Z,3.50
2018-11-02T22:34:48.528Z,3.35
2018-11-02T22:37:21.957Z,3.40
2018-11-02T22:39:55.785Z,3.33
2018-11-02T22:42:30.038Z,3.00
2018-11-02T22:45:04.285Z,3.12
2018-11-02T22:47:37.719Z,3.27
2018-11-02T22:50:12.274Z,3.33
2018-11-02T22:52:45.713Z,3.52
2018-11-02T22:55:19.382Z,3.40
2018-11-02T22:57:53.369Z,3.42
2018-11-02T23:00:26.836Z,3.42
2018-11-02T23:03:00.541Z,3.00
2018-11-02T23:05:34.338Z,3.37
2018-11-02T23:08:08.284Z,3.30
2018-11-02T23:10:41.740Z,3.60
2018-11-02T23:13:14.937Z,3.85
2018-11-02T23:15:47.621Z,3.90
2018-11-02T23:18:21.544Z,3.40
2018-11-02T23:20:55.141Z,3.45
2018-11-02T23:23:28.790Z,3.10
2018-11-02T23:26:02.504Z,3.55
2018-11-02T23:28:36.060Z,3.20
2018-11-02T23:31:09.612Z,3.40
2018-11-02T23:33:43.287Z,3.40
2018-11-02T23:36:16.723Z,3.20
2018-11-02T23:38:50.509Z,2.98
2018-11-02T23:41:24.057Z,3.30
2018-11-02T23:43:57.660Z,3.30
2018-11-02T23:46:31.287Z,3.12
2018-11-02T23:49:04.752Z,3.30
2018-11-02T23:51:38.775Z,3.10
2018-11-02T23:54:12.381Z,3.40
2018-11-02T23:56:45.807Z,3.00
2018-11-02T23:59:19.485Z,2.90
